createdAt,value
2022-10-10T00:01:29.747Z,8.45
2022-10-10T00:03:57.323Z,8.44
2022-10-10T00:06:29.176Z,8.46
2022-10-10T00:09:05.453Z,8.52
2022-10-10T00:11:36.387Z,8.50
2022-10-10T00:14:04.512Z,8.48
2022-10-10T00:16:32.151Z,8.52
2022-10-10T00:18:59.949Z,8.49
2022-10-10T00:21:27.715Z,8.55
2022-10-10T00:23:55.501Z,8.54
2022-10-10T00:26:23.185Z,8.48
2022-10-10T00:28:50.591Z,8.44
2022-10-10T00:31:18.720Z,8.38
2022-10-10T00:33:46.289Z,8.33
2022-10-10T00:36:13.986Z,8.26
2022-10-10T00:38:41.485Z,8.30
2022-10-10T00:41:09.639Z,8.25
2022-10-10T00:43:37.582Z,8.22
2022-10-10T00:46:05.021Z,8.21
2022-10-10T00:48:41.200Z,8.14
2022-10-10T00:51:13.033Z,8.10
2022-10-10T00:53:48.435Z,8.10
2022-10-10T00:56:21.464Z,8.06
2022-10-10T00:58:53.878Z,8.12
2022-10-10T01:01:21.503Z,8.09
2022-10-10T01:03:50.144Z,8.09
2022-10-10T01:06:17.742Z,8.06
2022-10-10T01:08:45.397Z,8.03
2022-10-10T01:11:28.255Z,8.02
2022-10-10T01:14:08.422Z,8.03
2022-10-10T01:16:41.101Z,8.00
2022-10-10T01:19:22.177Z,8.07
2022-10-10T01:22:14.691Z,8.07
2022-10-10T01:24:52.317Z,8.03
2022-10-10T01:27:31.233Z,8.06
2022-10-10T01:30:17.792Z,8.07
2022-10-10T01:32:57.243Z,8.10
2022-10-10T01:35:55.561Z,8.10
2022-10-10T01:38:31.641Z,8.06
2022-10-10T01:41:14.957Z,8.11
2022-10-10T01:43:43.192Z,8.05
2022-10-10T01:46:17.115Z,8.02
2022-10-10T01:48:47.723Z,8.07
2022-10-10T01:51:46.728Z,8.03
2022-10-10T01:54:17.101Z,8.00
2022-10-10T01:57:14.941Z,7.99
2022-10-10T02:00:09.003Z,7.96
2022-10-10T02:02:36.583Z,7.96
2022-10-10T02:05:20.653Z,7.89
2022-10-10T02:08:11.759Z,7.94
2022-10-10T02:10:53.111Z,7.95
2022-10-10T02:13:25.803Z,7.97
2022-10-10T02:15:55.804Z,7.97
2022-10-10T02:18:27.805Z,7.98
2022-10-10T02:20:56.548Z,7.93
2022-10-10T02:23:25.479Z,7.97
2022-10-10T02:25:56.133Z,7.95
2022-10-10T02:28:29.877Z,7.94
2022-10-10T02:31:01.529Z,7.93
2022-10-10T02:33:37.929Z,7.98
2022-10-10T02:36:06.877Z,7.91
2022-10-10T02:38:34.702Z,7.88
2022-10-10T02:41:04.150Z,7.91
2022-10-10T02:43:34.472Z,7.99
2022-10-10T02:46:04.702Z,7.90
2022-10-10T02:48:32.726Z,7.87
2022-10-10T02:51:00.090Z,7.89
2022-10-10T02:53:27.532Z,7.89
2022-10-10T02:55:55.041Z,7.85
2022-10-10T02:58:22.703Z,7.89
2022-10-10T03:00:50.294Z,7.93
2022-10-10T03:03:17.811Z,7.93
2022-10-10T03:05:47.025Z,7.95
2022-10-10T03:08:14.615Z,7.96
2022-10-10T03:10:42.329Z,8.01
2022-10-10T03:13:09.694Z,8.01
2022-10-10T03:15:37.091Z,8.04
2022-10-10T03:18:04.511Z,8.03
2022-10-10T03:20:31.905Z,8.02
2022-10-10T03:22:59.421Z,7.97
2022-10-10T03:25:26.870Z,8.01
2022-10-10T03:27:54.326Z,7.99
2022-10-10T03:30:22.170Z,8.15
2022-10-10T03:32:49.814Z,8.09
2022-10-10T03:35:18.402Z,8.06
2022-10-10T03:37:45.797Z,8.08
2022-10-10T03:40:13.290Z,8.11
2022-10-10T03:42:40.775Z,8.07
2022-10-10T03:45:08.652Z,8.02
2022-10-10T03:47:37.183Z,8.01
2022-10-10T03:50:06.180Z,8.00
2022-10-10T03:52:34.951Z,8.02
2022-10-10T03:55:03.428Z,8.01
2022-10-10T03:57:31.450Z,8.00
2022-10-10T03:59:58.903Z,7.98
2022-10-10T04:02:26.453Z,7.98
2022-10-10T04:04:53.920Z,8.01
2022-10-10T04:07:26.307Z,7.97
2022-10-10T04:09:57.687Z,7.87
2022-10-10T04:12:25.163Z,7.85
2022-10-10T04:14:52.616Z,7.90
2022-10-10T04:17:20.178Z,7.82
2022-10-10T04:19:47.695Z,7.83
2022-10-10T04:22:16.604Z,7.76
2022-10-10T04:24:44.378Z,7.65
2022-10-10T04:27:13.217Z,7.76
2022-10-10T04:29:41.050Z,7.62
2022-10-10T04:32:08.509Z,7.65
2022-10-10T04:34:35.943Z,7.66
2022-10-10T04:37:03.412Z,7.64
2022-10-10T04:39:31.164Z,7.67
2022-10-10T04:41:59.519Z,7.73
2022-10-10T04:44:27.096Z,7.62
2022-10-10T04:46:54.508Z,7.54
2022-10-10T04:49:22.169Z,7.53
2022-10-10T04:51:49.657Z,7.58
2022-10-10T04:54:17.294Z,7.59
2022-10-10T04:56:44.715Z,7.57
2022-10-10T04:59:12.464Z,7.46
2022-10-10T05:01:40.103Z,7.45
2022-10-10T05:04:07.735Z,7.35
2022-10-10T05:06:35.623Z,7.44
2022-10-10T05:09:02.910Z,7.51
2022-10-10T05:11:30.257Z,7.55
2022-10-10T05:13:57.727Z,7.44
2022-10-10T05:16:25.184Z,7.44
2022-10-10T05:18:52.672Z,7.38
2022-10-10T05:21:20.197Z,7.43
2022-10-10T05:23:47.597Z,7.52
2022-10-10T05:26:15.433Z,7.47
2022-10-10T05:28:42.961Z,7.47
2022-10-10T05:31:10.420Z,7.59
2022-10-10T05:33:37.889Z,7.59
2022-10-10T05:36:07.929Z,7.56
2022-10-10T05:38:35.621Z,7.70
2022-10-10T05:41:03.392Z,7.67
2022-10-10T05:43:30.993Z,7.71
2022-10-10T05:45:58.617Z,7.80
2022-10-10T05:48:27.054Z,7.80
2022-10-10T05:50:57.573Z,7.91
2022-10-10T05:53:27.163Z,7.81
2022-10-10T05:55:54.636Z,7.87
2022-10-10T05:58:22.401Z,7.88
2022-10-10T06:00:53.039Z,7.97
2022-10-10T06:03:20.699Z,8.00
2022-10-10T06:05:51.856Z,7.95
2022-10-10T06:08:19.488Z,8.00
2022-10-10T06:10:47.300Z,7.99
2022-10-10T06:13:21.648Z,8.02
2022-10-10T06:15:52.261Z,8.06
2022-10-10T06:18:19.683Z,8.16
2022-10-10T06:20:47.118Z,8.20
2022-10-10T06:23:18.318Z,8.28
2022-10-10T06:25:46.374Z,8.39
2022-10-10T06:28:13.978Z,8.47
2022-10-10T06:30:43.916Z,8.57
2022-10-10T06:33:12.636Z,8.69
2022-10-10T06:35:44.112Z,8.71
2022-10-10T06:38:14.282Z,8.78
2022-10-10T06:40:42.198Z,8.78
2022-10-10T06:43:14.560Z,8.86
2022-10-10T06:45:44.990Z,8.86
2022-10-10T06:48:14.851Z,8.90
2022-10-10T06:50:42.943Z,8.87
2022-10-10T06:53:10.431Z,8.91
2022-10-10T06:55:37.925Z,8.91
2022-10-10T06:58:07.854Z,8.86
2022-10-10T07:00:35.768Z,8.81
2022-10-10T07:03:04.086Z,8.80
2022-10-10T07:05:31.674Z,8.91
2022-10-10T07:08:14.060Z,8.86
2022-10-10T07:10:42.798Z,8.86
2022-10-10T07:13:11.173Z,8.95
2022-10-10T07:15:38.678Z,8.92
2022-10-10T07:18:07.017Z,9.01
2022-10-10T07:20:35.699Z,9.01
2022-10-10T07:23:04.939Z,9.06
2022-10-10T07:25:32.350Z,9.07
2022-10-10T07:28:00.087Z,9.10
2022-10-10T07:30:30.252Z,9.13
2022-10-10T07:32:58.411Z,9.19
2022-10-10T07:35:26.010Z,9.24
2022-10-10T07:37:56.404Z,9.31
2022-10-10T07:40:24.338Z,9.46
2022-10-10T07:42:52.288Z,9.58
2022-10-10T07:45:34.087Z,9.64
2022-10-10T07:48:03.063Z,9.77
2022-10-10T07:50:31.149Z,9.88
2022-10-10T07:52:59.017Z,9.85
2022-10-10T07:55:26.431Z,9.94
2022-10-10T07:57:53.911Z,10.04
2022-10-10T08:00:21.544Z,10.08
2022-10-10T08:02:49.383Z,10.13
2022-10-10T08:05:16.866Z,10.22
2022-10-10T08:07:44.840Z,10.43
2022-10-10T08:10:12.709Z,10.50
2022-10-10T08:12:40.269Z,10.56
2022-10-10T08:15:08.216Z,10.58
2022-10-10T08:17:35.556Z,10.64
2022-10-10T08:20:18.926Z,10.64
2022-10-10T08:22:46.643Z,10.78
2022-10-10T08:25:14.245Z,10.84
2022-10-10T08:27:42.077Z,10.84
2022-10-10T08:30:09.614Z,10.94
2022-10-10T08:32:37.350Z,10.97
2022-10-10T08:35:05.433Z,11.10
2022-10-10T08:37:37.205Z,11.21
2022-10-10T08:40:06.020Z,11.33
2022-10-10T08:42:55.687Z,11.41
2022-10-10T08:45:27.253Z,11.49
2022-10-10T08:47:57.015Z,11.48
2022-10-10T08:50:24.568Z,11.60
2022-10-10T08:53:08.392Z,11.58
2022-10-10T08:55:42.287Z,11.69
2022-10-10T08:58:18.841Z,11.69
2022-10-10T09:00:54.924Z,11.66
2022-10-10T09:03:41.962Z,11.72
2022-10-10T09:06:47.105Z,11.82
2022-10-10T09:09:31.221Z,11.86
2022-10-10T09:12:16.854Z,11.94
2022-10-10T09:14:59.797Z,12.02
2022-10-10T09:17:55.889Z,12.08
2022-10-10T09:20:48.179Z,12.17
2022-10-10T09:23:29.064Z,12.14
2022-10-10T09:26:19.764Z,12.07
2022-10-10T09:29:03.993Z,12.10
2022-10-10T09:31:53.628Z,12.23
2022-10-10T09:34:39.070Z,12.41
2022-10-10T09:37:24.242Z,12.69
2022-10-10T09:40:33.835Z,13.00
2022-10-10T09:43:12.670Z,13.06
2022-10-10T09:45:46.760Z,13.15
2022-10-10T09:48:14.442Z,13.12
2022-10-10T09:50:43.855Z,13.12
2022-10-10T09:53:20.646Z,12.99
2022-10-10T09:55:50.412Z,13.02
2022-10-10T09:58:56.219Z,12.98
2022-10-10T10:01:37.651Z,13.04
2022-10-10T10:04:34.291Z,13.10
2022-10-10T10:07:32.280Z,13.12
2022-10-10T10:10:19.304Z,13.17
2022-10-10T10:12:47.639Z,13.17
2022-10-10T10:15:22.203Z,13.18
2022-10-10T10:18:11.598Z,13.09
2022-10-10T10:20:42.615Z,13.16
2022-10-10T10:23:32.276Z,13.16
2022-10-10T10:26:06.672Z,13.42
2022-10-10T10:28:41.700Z,13.55
2022-10-10T10:31:21.801Z,13.81
2022-10-10T10:34:13.635Z,13.89
2022-10-10T10:37:16.395Z,14.06
2022-10-10T10:40:16.531Z,14.07
2022-10-10T10:42:59.108Z,14.10
2022-10-10T10:45:48.258Z,14.11
2022-10-10T10:48:24.675Z,14.23
2022-10-10T10:51:39.164Z,14.36
2022-10-10T10:54:40.743Z,14.34
2022-10-10T10:57:40.557Z,14.42
2022-10-10T11:00:26.117Z,14.45
2022-10-10T11:05:20.405Z,14.45
2022-10-10T11:06:23.377Z,14.22
2022-10-10T11:12:33.195Z,14.42
2022-10-10T11:16:06.603Z,14.32
2022-10-10T11:18:41.890Z,14.35
2022-10-10T11:21:14.386Z,14.37
2022-10-10T11:23:49.812Z,14.37
2022-10-10T11:26:24.163Z,14.37
2022-10-10T11:29:14.223Z,14.39
2022-10-10T11:31:55.859Z,14.42
2022-10-10T11:34:27.283Z,14.33
2022-10-10T11:37:00.359Z,14.27
2022-10-10T11:39:32.474Z,14.25
2022-10-10T11:42:05.806Z,14.35
2022-10-10T11:44:42.326Z,14.54
2022-10-10T11:47:25.950Z,14.38
2022-10-10T11:50:22.779Z,14.42
2022-10-10T11:53:19.014Z,14.33
2022-10-10T11:56:04.674Z,14.43
2022-10-10T11:58:35.618Z,14.54
2022-10-10T12:01:20.189Z,14.48
2022-10-10T12:03:47.616Z,14.70
2022-10-10T12:06:34.103Z,14.84
2022-10-10T12:09:37.086Z,15.03
2022-10-10T12:12:07.818Z,15.01
2022-10-10T12:14:39.282Z,15.12
2022-10-10T12:17:20.413Z,15.31
2022-10-10T12:19:50.938Z,15.50
2022-10-10T12:22:29.896Z,15.61
2022-10-10T12:25:35.297Z,15.61
2022-10-10T12:28:05.888Z,15.67
2022-10-10T12:30:33.793Z,15.78
2022-10-10T12:33:01.533Z,16.03
2022-10-10T12:35:29.231Z,16.18
2022-10-10T12:38:05.965Z,15.96
2022-10-10T12:40:34.376Z,15.77
2022-10-10T12:43:22.656Z,15.72
2022-10-10T12:46:16.605Z,15.81
2022-10-10T12:48:45.189Z,16.08
2022-10-10T12:51:20.713Z,16.11
2022-10-10T12:53:54.543Z,16.27
2022-10-10T12:56:39.545Z,16.33
2022-10-10T12:59:18.319Z,16.23
2022-10-10T13:01:55.301Z,16.21
2022-10-10T13:04:28.613Z,16.24
2022-10-10T13:06:58.479Z,16.26
2022-10-10T13:09:37.203Z,16.22
2022-10-10T13:12:06.949Z,16.04
2022-10-10T13:14:46.024Z,16.04
2022-10-10T13:17:26.128Z,16.03
2022-10-10T13:19:55.381Z,15.99
2022-10-10T13:22:23.570Z,15.95
2022-10-10T13:24:52.473Z,16.00
2022-10-10T13:27:25.164Z,15.96
2022-10-10T13:29:55.075Z,15.87
2022-10-10T13:32:27.151Z,15.85
2022-10-10T13:34:58.337Z,15.91
2022-10-10T13:37:26.893Z,15.95
2022-10-10T13:39:55.208Z,16.11
2022-10-10T13:42:31.538Z,16.28
2022-10-10T13:45:00.553Z,16.19
2022-10-10T13:47:37.199Z,16.23
2022-10-10T13:50:31.652Z,16.27
2022-10-10T13:53:27.522Z,16.30
2022-10-10T13:56:28.107Z,16.07
2022-10-10T13:59:04.946Z,15.98
2022-10-10T14:01:47.287Z,15.90
2022-10-10T14:04:25.181Z,15.86
2022-10-10T14:06:55.761Z,15.92
2022-10-10T14:09:28.440Z,15.94
2022-10-10T14:11:56.928Z,16.09
2022-10-10T14:14:32.409Z,16.12
2022-10-10T14:17:02.421Z,16.10
2022-10-10T14:19:31.148Z,16.04
2022-10-10T14:21:59.745Z,16.07
2022-10-10T14:24:27.241Z,16.06
2022-10-10T14:26:54.756Z,16.19
2022-10-10T14:29:22.907Z,16.35
2022-10-10T14:31:50.294Z,16.28
2022-10-10T14:34:17.896Z,16.24
2022-10-10T14:36:48.171Z,16.15
2022-10-10T14:39:17.569Z,16.18
2022-10-10T14:41:53.826Z,16.14
2022-10-10T14:44:23.213Z,16.17
2022-10-10T14:46:50.901Z,16.23
2022-10-10T14:49:20.151Z,16.17
2022-10-10T14:51:48.372Z,16.13
2022-10-10T14:54:16.291Z,16.15
2022-10-10T14:57:09.413Z,16.15
2022-10-10T14:59:48.014Z,16.08
2022-10-10T15:02:22.438Z,15.98
2022-10-10T15:04:50.813Z,15.95
2022-10-10T15:07:19.301Z,15.78
2022-10-10T15:12:39.556Z,15.50
2022-10-10T15:15:08.646Z,15.35
2022-10-10T15:17:36.178Z,15.29
2022-10-10T15:20:06.403Z,15.31
2022-10-10T15:22:34.805Z,15.27
2022-10-10T15:25:02.499Z,15.23
2022-10-10T15:27:30.316Z,15.20
2022-10-10T15:29:57.815Z,15.13
2022-10-10T15:32:25.473Z,15.07
2022-10-10T15:34:53.096Z,15.08
2022-10-10T15:37:20.727Z,14.88
2022-10-10T15:39:48.191Z,14.92
2022-10-10T15:42:21.515Z,14.86
2022-10-10T15:44:51.909Z,14.82
2022-10-10T15:47:23.024Z,14.70
2022-10-10T15:49:50.564Z,14.49
2022-10-10T15:52:19.457Z,14.44
2022-10-10T15:54:49.704Z,14.23
2022-10-10T15:57:19.292Z,13.99
2022-10-10T15:59:47.157Z,13.94
2022-10-10T16:02:14.485Z,13.88
2022-10-10T16:04:41.802Z,13.66
2022-10-10T16:07:26.844Z,13.57
2022-10-10T16:09:56.211Z,13.50
2022-10-10T16:12:23.870Z,13.51
2022-10-10T16:14:51.254Z,13.51
2022-10-10T16:17:23.297Z,13.53
2022-10-10T16:19:51.468Z,13.56
2022-10-10T16:22:19.023Z,13.51
2022-10-10T16:24:58.393Z,13.40
2022-10-10T16:27:40.953Z,13.15
2022-10-10T16:30:09.901Z,13.11
2022-10-10T16:32:42.749Z,13.26
2022-10-10T16:35:11.621Z,13.24
2022-10-10T16:37:39.962Z,13.11
2022-10-10T16:40:08.281Z,13.14
2022-10-10T16:42:36.608Z,13.13
2022-10-10T16:45:04.912Z,13.11
2022-10-10T16:47:32.795Z,13.17
2022-10-10T16:50:00.248Z,13.05
2022-10-10T16:52:29.738Z,12.93
2022-10-10T16:54:59.697Z,12.96
2022-10-10T16:57:27.004Z,12.93
2022-10-10T16:59:54.276Z,12.96
2022-10-10T17:02:24.590Z,13.07
2022-10-10T17:04:53.136Z,12.89
2022-10-10T17:07:21.785Z,12.78
2022-10-10T17:09:49.578Z,12.71
2022-10-10T17:12:17.055Z,12.72
2022-10-10T17:14:44.519Z,12.63
2022-10-10T17:17:13.212Z,12.61
2022-10-10T17:19:41.130Z,12.73
2022-10-10T17:22:08.672Z,12.63
2022-10-10T17:24:36.339Z,12.58
2022-10-10T17:27:03.771Z,12.59
2022-10-10T17:29:31.270Z,12.65
2022-10-10T17:32:02.789Z,12.69
2022-10-10T17:34:33.552Z,12.61
2022-10-10T17:37:05.225Z,12.57
2022-10-10T17:39:33.079Z,12.48
2022-10-10T17:42:03.184Z,12.49
2022-10-10T17:44:34.823Z,12.55
2022-10-10T17:47:06.618Z,12.55
2022-10-10T17:49:34.158Z,12.73
2022-10-10T17:52:02.937Z,12.73
2022-10-10T17:54:30.603Z,12.66
2022-10-10T17:56:57.986Z,12.68
2022-10-10T17:59:25.660Z,12.67
2022-10-10T18:01:53.146Z,12.76
2022-10-10T18:04:20.850Z,12.77
2022-10-10T18:06:48.193Z,12.80
2022-10-10T18:09:16.129Z,12.70
2022-10-10T18:11:43.987Z,12.70
2022-10-10T18:14:11.669Z,12.76
2022-10-10T18:16:40.806Z,12.86
2022-10-10T18:19:08.246Z,12.80
2022-10-10T18:21:35.808Z,12.82
2022-10-10T18:24:03.316Z,12.77
2022-10-10T18:26:33.161Z,12.74
2022-10-10T18:29:00.721Z,12.65
2022-10-10T18:31:34.249Z,12.79
2022-10-10T18:34:03.299Z,12.76
2022-10-10T18:36:38.364Z,12.75
2022-10-10T18:39:09.008Z,12.72
2022-10-10T18:41:36.966Z,12.73
2022-10-10T18:44:11.396Z,12.75
2022-10-10T18:46:42.254Z,12.72
2022-10-10T18:49:13.676Z,12.63
2022-10-10T18:51:43.307Z,12.84
2022-10-10T18:54:17.403Z,12.81
2022-10-10T18:56:46.030Z,12.86
2022-10-10T18:59:21.893Z,12.94
2022-10-10T19:01:50.586Z,13.18
2022-10-10T19:04:20.722Z,13.28
2022-10-10T19:06:54.492Z,13.42
2022-10-10T19:09:24.664Z,13.22
2022-10-10T19:11:53.403Z,13.40
2022-10-10T19:14:21.192Z,13.20
2022-10-10T19:16:57.262Z,13.11
2022-10-10T19:23:56.152Z,12.85
2022-10-10T19:26:23.678Z,13.00
2022-10-10T19:28:51.547Z,12.91
2022-10-10T19:31:25.872Z,12.85
2022-10-10T19:34:28.428Z,12.84
2022-10-10T19:36:56.637Z,13.07
2022-10-10T19:39:24.098Z,13.13
2022-10-10T19:41:51.469Z,13.31
2022-10-10T19:44:18.884Z,13.34
2022-10-10T19:46:47.630Z,13.18
2022-10-10T19:49:15.059Z,12.94
2022-10-10T19:51:49.565Z,12.84
2022-10-10T19:54:19.729Z,12.59
2022-10-10T19:56:48.542Z,12.59
2022-10-10T19:59:18.239Z,12.54
2022-10-10T20:01:46.541Z,12.43
2022-10-10T20:04:14.468Z,12.43
2022-10-10T20:06:43.785Z,12.34
2022-10-10T20:09:12.065Z,12.20
2022-10-10T20:11:39.705Z,12.18
2022-10-10T20:14:08.093Z,12.30
2022-10-10T20:16:40.599Z,12.28
2022-10-10T20:19:08.629Z,12.36
2022-10-10T20:21:37.423Z,12.38
2022-10-10T20:24:07.953Z,12.25
2022-10-10T20:26:38.997Z,12.39
2022-10-10T20:29:07.383Z,12.34
2022-10-10T20:31:36.730Z,12.48
2022-10-10T20:34:06.070Z,12.46
2022-10-10T20:36:44.806Z,12.45
2022-10-10T20:39:13.942Z,12.57
2022-10-10T20:41:42.099Z,12.54
2022-10-10T20:44:12.922Z,12.65
2022-10-10T20:46:43.186Z,12.79
2022-10-10T20:49:20.795Z,12.68
2022-10-10T20:51:51.639Z,12.60
2022-10-10T20:54:22.288Z,12.50
2022-10-10T20:56:50.213Z,12.52
2022-10-10T20:59:19.585Z,12.51
2022-10-10T21:02:09.045Z,12.52
2022-10-10T21:04:40.108Z,12.51
2022-10-10T21:07:08.018Z,12.60
2022-10-10T21:09:35.349Z,12.57
2022-10-10T21:12:03.380Z,12.47
2022-10-10T21:14:30.871Z,12.46
2022-10-10T21:16:58.444Z,12.44
2022-10-10T21:19:26.010Z,12.44
2022-10-10T21:21:53.522Z,12.45
2022-10-10T21:24:20.897Z,12.44
2022-10-10T21:26:50.476Z,12.49
2022-10-10T21:29:17.898Z,12.47
2022-10-10T21:31:45.755Z,12.55
2022-10-10T21:34:15.735Z,12.44
2022-10-10T21:36:47.125Z,12.38
2022-10-10T21:39:14.882Z,12.36
2022-10-10T21:41:42.600Z,12.30
2022-10-10T21:44:11.165Z,12.20
2022-10-10T21:46:38.588Z,12.24
2022-10-10T21:49:11.321Z,12.27
2022-10-10T21:51:41.475Z,12.29
2022-10-10T21:54:09.939Z,12.29
2022-10-10T21:56:37.888Z,12.20
2022-10-10T21:59:05.578Z,12.24
2022-10-10T22:01:33.532Z,12.28
2022-10-10T22:04:02.686Z,12.32
2022-10-10T22:06:31.613Z,12.32
2022-10-10T22:09:00.986Z,12.38
2022-10-10T22:11:30.652Z,12.34
2022-10-10T22:13:58.235Z,12.32
2022-10-10T22:16:26.016Z,12.41
2022-10-10T22:18:57.656Z,12.32
2022-10-10T22:21:30.290Z,12.26
2022-10-10T22:24:02.184Z,12.34
2022-10-10T22:26:30.797Z,12.28
2022-10-10T22:28:58.512Z,12.20
2022-10-10T22:31:26.652Z,12.14
2022-10-10T22:33:54.049Z,12.15
2022-10-10T22:36:21.579Z,12.14
2022-10-10T22:38:49.092Z,12.16
2022-10-10T22:41:16.564Z,12.10
2022-10-10T22:43:43.969Z,12.13
2022-10-10T22:46:11.423Z,12.15
2022-10-10T22:48:39.356Z,12.16
2022-10-10T22:51:10.809Z,12.05
2022-10-10T22:53:39.575Z,12.07
2022-10-10T22:56:07.897Z,12.05
2022-10-10T22:58:35.702Z,11.99
2022-10-10T23:01:16.019Z,11.91
2022-10-10T23:03:44.277Z,11.89
2022-10-10T23:06:12.273Z,11.90
2022-10-10T23:08:39.557Z,11.81
2022-10-10T23:11:07.249Z,11.68
2022-10-10T23:13:34.773Z,11.68
2022-10-10T23:16:02.623Z,11.65
2022-10-10T23:18:30.942Z,11.63
2022-10-10T23:20:58.449Z,11.65
2022-10-10T23:23:26.225Z,11.59
2022-10-10T23:25:55.912Z,11.61
2022-10-10T23:28:23.471Z,11.50
2022-10-10T23:30:51.061Z,11.48
2022-10-10T23:33:18.831Z,11.44
2022-10-10T23:35:59.797Z,11.52
2022-10-10T23:38:27.978Z,11.37
2022-10-10T23:40:58.451Z,11.35
2022-10-10T23:43:26.232Z,11.35
2022-10-10T23:45:53.732Z,11.24
2022-10-10T23:48:21.842Z,11.16
2022-10-10T23:50:49.458Z,11.09
2022-10-10T23:53:16.942Z,11.05
2022-10-10T23:55:45.939Z,11.05
2022-10-10T23:58:13.994Z,10.98
